createdAt,value
2022-08-17T00:00:43.601Z,99121.81
2022-08-17T00:03:09.976Z,99122.88
2022-08-17T00:05:42.302Z,99122.16
2022-08-17T00:08:11.317Z,99104.13
2022-08-17T00:10:39.869Z,99113.47
2022-08-17T00:13:10.319Z,99098.88
2022-08-17T00:15:38.747Z,99113.56
2022-08-17T00:19:01.401Z,99120.06
2022-08-17T00:20:58.276Z,99101.78
2022-08-17T00:23:26.805Z,99100.00
2022-08-17T00:25:54.941Z,99114.69
2022-08-17T00:28:23.062Z,99112.25
2022-08-17T00:30:53.535Z,99115.28
2022-08-17T00:33:26.930Z,99108.78
2022-08-17T00:35:56.387Z,99125.13
2022-08-17T00:38:25.512Z,99120.63
2022-08-17T00:40:59.223Z,99119.69
2022-08-17T00:43:32.864Z,99115.09
2022-08-17T00:46:04.429Z,99119.09
2022-08-17T00:48:34.441Z,99118.19
2022-08-17T00:51:08.446Z,99113.41
2022-08-17T00:53:40.432Z,99098.53
2022-08-17T00:56:12.269Z,99122.59
2022-08-17T00:58:41.304Z,99122.00
2022-08-17T01:01:11.385Z,99106.78
2022-08-17T01:03:41.865Z,99122.88
2022-08-17T01:06:10.214Z,99036.69
2022-08-17T01:08:40.634Z,99113.69
2022-08-17T01:11:09.558Z,99117.63
2022-08-17T01:13:41.693Z,99121.72
2022-08-17T01:16:17.308Z,99126.84
2022-08-17T01:18:50.514Z,99121.50
2022-08-17T01:21:25.962Z,99098.38
2022-08-17T01:23:55.566Z,99090.81
2022-08-17T01:26:24.497Z,99108.34
2022-08-17T01:28:55.695Z,99105.44
2022-08-17T01:31:26.731Z,99104.59
2022-08-17T01:33:54.775Z,99118.91
2022-08-17T01:36:22.990Z,99109.72
2022-08-17T01:38:51.301Z,99104.72
2022-08-17T01:41:23.712Z,99106.47
2022-08-17T01:43:56.972Z,99103.22
2022-08-17T01:46:28.230Z,99085.38
2022-08-17T01:48:57.840Z,99087.00
2022-08-17T01:51:32.628Z,99097.16
2022-08-17T01:54:05.161Z,99080.31
2022-08-17T01:56:36.724Z,99093.78
2022-08-17T01:59:05.052Z,99097.72
2022-08-17T02:01:34.929Z,99090.75
2022-08-17T02:04:04.062Z,99093.91
2022-08-17T02:06:52.501Z,99090.91
2022-08-17T02:09:24.103Z,99044.38
2022-08-17T02:11:56.237Z,99090.19
2022-08-17T02:14:25.416Z,99080.31
2022-08-17T02:16:54.616Z,99054.03
2022-08-17T02:19:23.287Z,99096.28
2022-08-17T02:21:54.117Z,99090.47
2022-08-17T02:24:58.685Z,99070.34
2022-08-17T02:27:15.044Z,99090.56
2022-08-17T02:29:43.229Z,99087.44
2022-08-17T02:32:27.141Z,99090.81
2022-08-17T02:34:55.911Z,99073.34
2022-08-17T02:37:24.070Z,99067.22
2022-08-17T02:39:52.137Z,99057.66
2022-08-17T02:42:27.859Z,99073.84
2022-08-17T02:44:56.228Z,99103.75
2022-08-17T02:47:25.029Z,99095.94
2022-08-17T02:49:54.353Z,99100.56
2022-08-17T02:52:43.191Z,99089.66
2022-08-17T02:55:16.475Z,99096.19
2022-08-17T02:57:46.332Z,99086.91
2022-08-17T03:00:18.051Z,99095.72
2022-08-17T03:02:47.194Z,99093.72
2022-08-17T03:05:19.526Z,99085.25
2022-08-17T03:07:47.988Z,99093.63
2022-08-17T03:10:17.357Z,99102.59
2022-08-17T03:12:47.942Z,99100.59
2022-08-17T03:15:18.658Z,99057.66
2022-08-17T03:17:46.898Z,99113.63
2022-08-17T03:20:16.217Z,99078.94
2022-08-17T03:22:48.063Z,99114.56
2022-08-17T03:25:25.605Z,99118.31
2022-08-17T03:27:55.589Z,99014.50
2022-08-17T03:30:25.482Z,99107.69
2022-08-17T03:32:56.247Z,99090.91
2022-08-17T03:35:26.939Z,99122.59
2022-08-17T03:38:00.545Z,99126.44
2022-08-17T03:40:41.805Z,99133.63
2022-08-17T03:43:20.183Z,99117.09
2022-08-17T03:46:05.839Z,99123.28
2022-08-17T03:49:10.487Z,99127.59
2022-08-17T03:51:56.003Z,99125.47
2022-08-17T03:54:41.523Z,99092.28
2022-08-17T03:57:12.624Z,99070.00
2022-08-17T03:59:42.506Z,99057.56
2022-08-17T04:02:15.664Z,99091.94
2022-08-17T04:04:43.757Z,99057.66
2022-08-17T04:07:12.145Z,99065.84
2022-08-17T04:09:40.200Z,99158.44
2022-08-17T04:12:08.653Z,99156.09
2022-08-17T04:14:51.751Z,99075.28
2022-08-17T04:17:24.924Z,99159.03
2022-08-17T04:19:53.686Z,99163.28
2022-08-17T04:22:30.385Z,99078.16
2022-08-17T04:25:07.592Z,99097.41
2022-08-17T04:27:35.928Z,99136.66
2022-08-17T04:30:04.150Z,99150.84
2022-08-17T04:33:05.221Z,99167.44
2022-08-17T04:35:23.855Z,99162.91
2022-08-17T04:37:52.122Z,99162.16
2022-08-17T04:40:39.606Z,99173.22
2022-08-17T04:43:10.193Z,99171.59
2022-08-17T04:45:55.192Z,99167.28
2022-08-17T04:48:35.537Z,99158.81
2022-08-17T04:51:07.220Z,99137.59
2022-08-17T04:53:35.577Z,99168.09
2022-08-17T04:56:03.954Z,99156.94
2022-08-17T04:58:32.029Z,99176.41
2022-08-17T05:01:00.228Z,99173.44
2022-08-17T05:03:29.703Z,99173.84
2022-08-17T05:05:58.256Z,99176.72
2022-08-17T05:08:26.429Z,99174.41
2022-08-17T05:10:54.440Z,99180.81
2022-08-17T05:13:25.111Z,99185.00
2022-08-17T05:15:56.794Z,99183.13
2022-08-17T05:18:24.920Z,99175.00
2022-08-17T05:20:54.981Z,99159.50
2022-08-17T05:23:25.271Z,99192.59
2022-08-17T05:25:56.380Z,99188.81
2022-08-17T05:28:27.539Z,99191.97
2022-08-17T05:30:57.172Z,99190.69
2022-08-17T05:33:27.783Z,99193.84
2022-08-17T05:36:00.172Z,99199.53
2022-08-17T05:38:29.991Z,99193.59
2022-08-17T05:40:58.926Z,99189.38
2022-08-17T05:43:29.680Z,99198.34
2022-08-17T05:46:04.571Z,99199.91
2022-08-17T05:48:40.026Z,99196.94
2022-08-17T05:51:44.519Z,99190.59
2022-08-17T05:54:30.252Z,99191.25
2022-08-17T05:57:34.257Z,99193.09
2022-08-17T06:00:12.142Z,99185.75
2022-08-17T06:02:58.100Z,99191.78
2022-08-17T06:05:43.191Z,99191.06
2022-08-17T06:08:22.051Z,99200.94
2022-08-17T06:11:03.892Z,99206.50
2022-08-17T06:13:50.955Z,99196.25
2022-08-17T06:16:33.776Z,99206.00
2022-08-17T06:19:07.726Z,99192.69
2022-08-17T06:21:40.013Z,99198.16
2022-08-17T06:24:23.317Z,99186.06
2022-08-17T06:26:53.460Z,99204.72
2022-08-17T06:29:35.441Z,99210.59
2022-08-17T06:32:05.044Z,99210.75
2022-08-17T06:34:34.403Z,99206.69
2022-08-17T06:37:15.714Z,99216.56
2022-08-17T06:39:55.177Z,99205.72
2022-08-17T06:42:55.018Z,99212.84
2022-08-17T06:45:28.915Z,99221.16
2022-08-17T06:48:05.819Z,99205.56
2022-08-17T06:50:38.053Z,99204.66
2022-08-17T06:53:15.552Z,99208.72
2022-08-17T06:55:51.787Z,99202.94
2022-08-17T06:58:22.985Z,99200.00
2022-08-17T07:01:01.103Z,99204.31
2022-08-17T07:03:38.081Z,99202.19
2022-08-17T07:06:11.970Z,99195.50
2022-08-17T07:08:50.580Z,99198.28
2022-08-17T07:11:27.213Z,99203.25
2022-08-17T07:14:12.801Z,99202.28
2022-08-17T07:16:46.832Z,99196.72
2022-08-17T07:19:16.843Z,99158.59
2022-08-17T07:21:55.153Z,99196.88
2022-08-17T07:24:35.700Z,99198.88
2022-08-17T07:27:09.360Z,99202.75
2022-08-17T07:29:42.396Z,99200.34
2022-08-17T07:32:13.589Z,99204.47
2022-08-17T07:35:02.386Z,99191.78
2022-08-17T07:37:33.675Z,99197.06
2022-08-17T07:40:20.422Z,99197.19
2022-08-17T07:43:11.460Z,99204.03
2022-08-17T07:46:13.082Z,99210.38
2022-08-17T07:48:43.856Z,99193.44
2022-08-17T07:51:27.508Z,99194.56
2022-08-17T07:54:13.136Z,99199.78
2022-08-17T07:56:46.819Z,99195.47
2022-08-17T07:59:23.331Z,99184.72
2022-08-17T08:02:05.316Z,99194.28
2022-08-17T08:04:59.272Z,99187.59
2022-08-17T08:07:29.555Z,99181.72
2022-08-17T08:10:09.053Z,99190.91
2022-08-17T08:12:39.018Z,99183.41
2022-08-17T08:15:18.936Z,99177.25
2022-08-17T08:17:51.978Z,99184.84
2022-08-17T08:20:51.126Z,99178.69
2022-08-17T08:23:26.048Z,99182.03
2022-08-17T08:26:04.603Z,99175.28
2022-08-17T08:28:43.622Z,99173.34
2022-08-17T08:31:25.291Z,99166.88
2022-08-17T08:34:06.849Z,99173.13
2022-08-17T08:37:14.243Z,99172.34
2022-08-17T08:39:48.457Z,99160.81
2022-08-17T08:42:25.456Z,99171.84
2022-08-17T08:45:04.603Z,99160.50
2022-08-17T08:47:57.922Z,99156.25
2022-08-17T08:50:42.902Z,99155.19
2022-08-17T08:53:24.507Z,99161.69
2022-08-17T08:55:57.231Z,99155.19
2022-08-17T08:58:42.046Z,99157.38
2022-08-17T09:01:19.850Z,99153.84
2022-08-17T09:04:25.582Z,99156.53
2022-08-17T09:07:06.441Z,99146.28
2022-08-17T09:09:50.941Z,99144.38
2022-08-17T09:12:27.009Z,99145.47
2022-08-17T09:15:02.549Z,99149.53
2022-08-17T09:17:40.179Z,99147.13
2022-08-17T09:20:27.701Z,99146.53
2022-08-17T09:23:03.775Z,99136.78
2022-08-17T09:25:35.140Z,99148.13
2022-08-17T09:28:08.268Z,99135.72
2022-08-17T09:30:42.252Z,99136.50
2022-08-17T09:33:12.679Z,99138.09
2022-08-17T09:35:49.221Z,99132.41
2022-08-17T09:38:28.104Z,99135.06
2022-08-17T09:41:08.975Z,99140.19
2022-08-17T09:43:43.201Z,99132.59
2022-08-17T09:46:18.299Z,99129.84
2022-08-17T09:48:55.377Z,99134.41
2022-08-17T09:51:32.064Z,99130.19
2022-08-17T09:54:21.049Z,99122.25
2022-08-17T09:57:27.911Z,99120.13
2022-08-17T10:00:09.378Z,99119.53
2022-08-17T10:03:03.360Z,99130.13
2022-08-17T10:05:41.269Z,99120.94
2022-08-17T10:08:22.920Z,99125.50
2022-08-17T10:11:05.759Z,99115.28
2022-08-17T10:13:39.430Z,99104.13
2022-08-17T10:16:18.638Z,99111.34
2022-08-17T10:18:55.786Z,99113.47
2022-08-17T10:21:44.474Z,99117.03
2022-08-17T10:24:36.961Z,99100.94
2022-08-17T10:27:10.249Z,99108.66
2022-08-17T10:29:49.068Z,99099.47
2022-08-17T10:32:32.554Z,99102.22
2022-08-17T10:35:18.928Z,99103.84
2022-08-17T10:38:15.915Z,99092.84
2022-08-17T10:40:53.100Z,99095.97
2022-08-17T10:43:34.950Z,99093.28
2022-08-17T10:46:29.876Z,99087.81
2022-08-17T10:49:34.049Z,99082.63
2022-08-17T10:52:03.948Z,99091.63
2022-08-17T10:54:38.331Z,99086.66
2022-08-17T10:57:34.867Z,99084.94
2022-08-17T11:00:03.565Z,99080.63
2022-08-17T11:02:40.699Z,99077.78
2022-08-17T11:05:30.488Z,99063.53
2022-08-17T11:08:20.056Z,99073.88
2022-08-17T11:11:00.655Z,99076.44
2022-08-17T11:13:40.012Z,99068.41
2022-08-17T11:16:27.279Z,99067.41
2022-08-17T11:19:26.655Z,99067.22
2022-08-17T11:22:20.607Z,99068.69
2022-08-17T11:24:51.365Z,99070.44
2022-08-17T11:27:27.309Z,99062.53
2022-08-17T11:30:02.123Z,99060.91
2022-08-17T11:32:47.372Z,99046.06
2022-08-17T11:35:38.902Z,99059.75
2022-08-17T11:38:19.597Z,99056.81
2022-08-17T11:41:10.496Z,99050.03
2022-08-17T11:44:10.547Z,99030.97
2022-08-17T11:47:18.866Z,99045.38
2022-08-17T11:50:19.261Z,99038.84
2022-08-17T11:52:49.821Z,99033.97
2022-08-17T11:55:51.355Z,99027.81
2022-08-17T11:58:41.069Z,99027.59
2022-08-17T12:01:12.361Z,99032.84
2022-08-17T12:03:55.807Z,99032.91
2022-08-17T12:06:45.330Z,99029.88
2022-08-17T12:09:19.397Z,99020.97
2022-08-17T12:12:13.163Z,99017.16
2022-08-17T12:15:09.491Z,99016.47
2022-08-17T12:17:40.167Z,99006.84
2022-08-17T12:20:17.176Z,99012.75
2022-08-17T12:22:53.818Z,99008.56
2022-08-17T12:25:32.876Z,99004.41
2022-08-17T12:28:06.839Z,99007.56
2022-08-17T12:30:37.306Z,99011.41
2022-08-17T12:33:13.425Z,98992.19
2022-08-17T12:36:00.217Z,99007.59
2022-08-17T12:38:32.601Z,98998.22
2022-08-17T12:41:24.473Z,99009.69
2022-08-17T12:44:02.403Z,99001.75
2022-08-17T12:46:34.843Z,99002.63
2022-08-17T12:49:18.659Z,99005.09
2022-08-17T12:51:48.993Z,99008.81
2022-08-17T12:54:31.618Z,99005.47
2022-08-17T12:57:06.284Z,99004.84
2022-08-17T12:59:34.496Z,99000.63
2022-08-17T13:02:02.814Z,99001.34
2022-08-17T13:04:32.376Z,98997.88
2022-08-17T13:07:01.952Z,98984.13
2022-08-17T13:09:35.567Z,98984.75
2022-08-17T13:12:08.835Z,98993.00
2022-08-17T13:14:37.497Z,98994.00
2022-08-17T13:17:11.254Z,98991.34
2022-08-17T13:19:50.919Z,98983.25
2022-08-17T13:22:24.651Z,99006.09
2022-08-17T13:24:55.005Z,98981.81
2022-08-17T13:27:25.684Z,98997.44
2022-08-17T13:29:58.065Z,98989.16
2022-08-17T13:32:37.165Z,98990.97
2022-08-17T13:35:49.884Z,98988.28
2022-08-17T13:38:36.562Z,98986.94
2022-08-17T13:41:06.438Z,98988.03
2022-08-17T13:43:45.005Z,98988.69
2022-08-17T13:46:19.764Z,98986.97
2022-08-17T13:48:58.024Z,98978.03
2022-08-17T13:51:32.683Z,98984.41
2022-08-17T13:54:06.790Z,98991.69
2022-08-17T13:56:40.064Z,98985.78
2022-08-17T13:59:13.028Z,98989.97
2022-08-17T14:01:45.235Z,98994.63
2022-08-17T14:04:17.562Z,98987.34
2022-08-17T14:06:53.947Z,98994.81
2022-08-17T14:09:27.157Z,98989.00
2022-08-17T14:11:56.777Z,98984.78
2022-08-17T14:14:24.871Z,98991.31
2022-08-17T14:16:54.233Z,98988.25
2022-08-17T14:19:23.192Z,98982.78
2022-08-17T14:21:56.481Z,98981.25
2022-08-17T14:24:28.585Z,98983.34
2022-08-17T14:26:57.715Z,98984.34
2022-08-17T14:29:28.250Z,98983.78
2022-08-17T14:31:57.376Z,98977.25
2022-08-17T14:34:26.159Z,98987.88
2022-08-17T14:36:54.327Z,98983.81
2022-08-17T14:39:22.331Z,98998.22
2022-08-17T14:41:53.032Z,98992.63
2022-08-17T14:44:21.147Z,98982.88
2022-08-17T14:46:50.608Z,98999.16
2022-08-17T14:49:20.719Z,98988.25
2022-08-17T14:51:48.861Z,98989.09
2022-08-17T14:54:33.729Z,98994.34
2022-08-17T14:57:25.985Z,98992.00
2022-08-17T14:59:55.199Z,98983.13
2022-08-17T15:02:29.985Z,98998.31
2022-08-17T15:05:03.115Z,98995.00
2022-08-17T15:07:31.657Z,98990.41
2022-08-17T15:10:01.592Z,98990.25
2022-08-17T15:12:34.115Z,98992.69
2022-08-17T15:15:04.572Z,98988.97
2022-08-17T15:17:43.920Z,98988.06
2022-08-17T15:20:16.197Z,98986.34
2022-08-17T15:22:46.973Z,98991.44
2022-08-17T15:25:15.640Z,98983.03
2022-08-17T15:27:45.144Z,98987.13
2022-08-17T15:30:14.047Z,98993.47
2022-08-17T15:32:48.203Z,98982.09
2022-08-17T15:35:27.490Z,98992.03
2022-08-17T15:37:58.167Z,98992.81
2022-08-17T15:40:26.271Z,99000.03
2022-08-17T15:42:55.588Z,98988.22
2022-08-17T15:45:27.123Z,98992.13
2022-08-17T15:47:55.364Z,98981.59
2022-08-17T15:50:23.761Z,98992.97
2022-08-17T15:52:57.757Z,98972.22
2022-08-17T15:55:27.757Z,98997.56
2022-08-17T15:57:57.318Z,98953.66
2022-08-17T16:00:28.502Z,99002.06
2022-08-17T16:03:44.794Z,98976.72
2022-08-17T16:05:46.217Z,98896.16
2022-08-17T16:08:20.099Z,99005.69
2022-08-17T16:10:49.246Z,99010.78
2022-08-17T16:13:19.465Z,99000.69
2022-08-17T16:15:57.083Z,99017.31
2022-08-17T16:18:31.075Z,99016.38
2022-08-17T16:21:22.626Z,98973.66
2022-08-17T16:23:52.648Z,98998.38
2022-08-17T16:26:23.021Z,99017.94
2022-08-17T16:28:53.257Z,99009.97
2022-08-17T16:31:21.446Z,99015.00
2022-08-17T16:34:03.817Z,99010.34
2022-08-17T16:36:39.312Z,99020.78
2022-08-17T16:39:07.349Z,99014.50
2022-08-17T16:41:45.191Z,99007.22
2022-08-17T16:44:17.097Z,99023.44
2022-08-17T16:46:46.246Z,99006.84
2022-08-17T16:49:35.358Z,99000.53
2022-08-17T16:52:04.411Z,99024.97
2022-08-17T16:54:32.677Z,99018.19
2022-08-17T16:57:02.979Z,99018.25
2022-08-17T16:59:41.042Z,99015.13
2022-08-17T17:02:14.733Z,99032.00
2022-08-17T17:04:49.298Z,99028.09
2022-08-17T17:07:34.857Z,99034.38
2022-08-17T17:10:07.914Z,98983.00
2022-08-17T17:12:59.534Z,99044.50
2022-08-17T17:15:41.479Z,99053.47
2022-08-17T17:18:14.833Z,99060.75
2022-08-17T17:20:48.838Z,99053.72
2022-08-17T17:23:32.552Z,99056.50
2022-08-17T17:26:11.169Z,99069.53
2022-08-17T17:28:47.541Z,99072.44
2022-08-17T17:31:19.152Z,99078.13
2022-08-17T17:33:50.934Z,99080.28
2022-08-17T17:36:26.936Z,99079.72
2022-08-17T17:39:01.373Z,99082.72
2022-08-17T17:41:34.329Z,99082.47
2022-08-17T17:44:07.553Z,99076.03
2022-08-17T17:46:40.990Z,99093.59
2022-08-17T17:49:11.298Z,99095.50
2022-08-17T17:52:07.134Z,99096.59
2022-08-17T17:54:51.060Z,99109.00
2022-08-17T17:57:30.892Z,99113.56
2022-08-17T18:00:08.017Z,99113.34
2022-08-17T18:02:51.695Z,99112.28
2022-08-17T18:05:38.676Z,99113.34
2022-08-17T18:08:17.664Z,99110.13
2022-08-17T18:10:54.552Z,99122.00
2022-08-17T18:13:29.564Z,99122.00
2022-08-17T18:16:00.866Z,99128.19
2022-08-17T18:18:38.733Z,99132.25
2022-08-17T18:21:16.784Z,99135.22
2022-08-17T18:23:53.927Z,99141.41
2022-08-17T18:26:41.828Z,99146.78
2022-08-17T18:29:42.533Z,99140.59
2022-08-17T18:32:28.707Z,99142.22
2022-08-17T18:35:01.292Z,99144.88
2022-08-17T18:37:39.600Z,99147.03
2022-08-17T18:40:37.650Z,99157.28
2022-08-17T18:43:13.841Z,99147.84
2022-08-17T18:45:48.017Z,99160.25
2022-08-17T18:48:28.953Z,99167.75
2022-08-17T18:51:01.180Z,99169.91
2022-08-17T18:53:38.563Z,99162.63
2022-08-17T18:56:30.901Z,99163.97
2022-08-17T18:59:12.358Z,99170.69
2022-08-17T19:01:53.815Z,99169.00
2022-08-17T19:04:36.107Z,99175.47
2022-08-17T19:07:12.235Z,99179.28
2022-08-17T19:09:47.038Z,99174.34
2022-08-17T19:12:27.654Z,99181.94
2022-08-17T19:14:57.596Z,99193.53
2022-08-17T19:17:36.304Z,99181.09
2022-08-17T19:20:15.212Z,99189.16
2022-08-17T19:22:57.435Z,99188.34
2022-08-17T19:25:30.527Z,99192.88
2022-08-17T19:28:04.147Z,99179.94
2022-08-17T19:30:51.474Z,99199.03
2022-08-17T19:33:20.086Z,99195.81
2022-08-17T19:36:00.088Z,99192.56
2022-08-17T19:38:41.800Z,99195.50
2022-08-17T19:41:18.025Z,99188.22
2022-08-17T19:44:11.636Z,99199.28
2022-08-17T19:46:50.501Z,99201.94
2022-08-17T19:49:41.653Z,99202.75
2022-08-17T19:52:33.917Z,99207.56
2022-08-17T19:55:10.232Z,99203.25
2022-08-17T19:57:49.545Z,99203.78
2022-08-17T20:00:19.923Z,99209.16
2022-08-17T20:02:55.286Z,99201.06
2022-08-17T20:05:26.933Z,99208.50
2022-08-17T20:08:02.176Z,99203.91
2022-08-17T20:10:39.835Z,99197.13
2022-08-17T20:13:15.653Z,99200.09
2022-08-17T20:15:46.043Z,99200.56
2022-08-17T20:18:21.069Z,99200.56
2022-08-17T20:20:57.739Z,99195.66
2022-08-17T20:23:42.173Z,99200.50
2022-08-17T20:26:19.639Z,99194.03
2022-08-17T20:29:08.188Z,99209.88
2022-08-17T20:31:49.060Z,99213.63
2022-08-17T20:34:37.547Z,99213.06
2022-08-17T20:37:09.065Z,99216.28
2022-08-17T20:39:41.981Z,99211.13
2022-08-17T20:42:30.259Z,99219.75
2022-08-17T20:45:02.308Z,99217.81
2022-08-17T20:47:33.353Z,99229.59
2022-08-17T20:50:06.946Z,99217.66
2022-08-17T20:52:53.316Z,99217.72
2022-08-17T20:55:54.806Z,99221.16
2022-08-17T20:58:47.418Z,99223.41
2022-08-17T21:01:24.299Z,99218.59
2022-08-17T21:03:54.261Z,99218.03
2022-08-17T21:06:25.861Z,99219.81
2022-08-17T21:08:59.089Z,99216.44
2022-08-17T21:12:04.331Z,99220.56
2022-08-17T21:14:52.076Z,99219.41
2022-08-17T21:17:38.102Z,99215.66
2022-08-17T21:20:15.809Z,99216.63
2022-08-17T21:22:57.686Z,99224.50
2022-08-17T21:25:56.701Z,99218.91
2022-08-17T21:28:34.294Z,99222.16
2022-08-17T21:31:08.700Z,99226.47
2022-08-17T21:33:39.637Z,99196.00
2022-08-17T21:36:27.424Z,99225.75
2022-08-17T21:39:08.873Z,99231.03
2022-08-17T21:41:53.943Z,99225.69
2022-08-17T21:44:31.161Z,99233.50
2022-08-17T21:47:16.662Z,99230.59
2022-08-17T21:49:44.740Z,99232.09
2022-08-17T21:52:15.800Z,99228.69
2022-08-17T21:54:51.195Z,99231.72
2022-08-17T21:57:22.523Z,99229.28
2022-08-17T21:59:55.095Z,99234.34
2022-08-17T22:02:28.055Z,99228.47
2022-08-17T22:05:00.946Z,99234.41
2022-08-17T22:07:38.934Z,99233.13
2022-08-17T22:10:09.726Z,99232.00
2022-08-17T22:12:37.751Z,99242.81
2022-08-17T22:15:09.700Z,99235.75
2022-08-17T22:17:46.435Z,99224.94
2022-08-17T22:20:18.401Z,99233.78
2022-08-17T22:23:23.952Z,99239.91
2022-08-17T22:26:01.229Z,99237.06
2022-08-17T22:28:47.229Z,99223.00
2022-08-17T22:31:17.499Z,99236.53
2022-08-17T22:33:50.577Z,99234.06
2022-08-17T22:36:25.246Z,99227.88
2022-08-17T22:38:56.144Z,99228.22
2022-08-17T22:41:40.668Z,99226.66
2022-08-17T22:44:17.637Z,99218.91
2022-08-17T22:47:11.214Z,99226.16
2022-08-17T22:49:53.124Z,99226.47
2022-08-17T22:52:32.559Z,99230.63
2022-08-17T22:55:34.916Z,99232.25
2022-08-17T22:58:20.650Z,99220.22
2022-08-17T23:00:51.120Z,99229.97
2022-08-17T23:03:21.272Z,99225.75
2022-08-17T23:06:04.653Z,99230.22
2022-08-17T23:08:35.642Z,99222.88
2022-08-17T23:11:04.213Z,99215.88
2022-08-17T23:13:33.448Z,99224.50
2022-08-17T23:16:01.835Z,99228.81
2022-08-17T23:18:30.033Z,99224.50
2022-08-17T23:21:00.742Z,99221.38
2022-08-17T23:23:31.334Z,99216.78
2022-08-17T23:25:59.375Z,99227.19
2022-08-17T23:28:28.535Z,99222.81
2022-08-17T23:30:56.544Z,99219.56
2022-08-17T23:33:31.927Z,99214.84
2022-08-17T23:36:01.783Z,99215.13
2022-08-17T23:38:31.779Z,99210.25
2022-08-17T23:41:01.958Z,99206.44
2022-08-17T23:43:31.431Z,99215.97
2022-08-17T23:46:03.699Z,99209.38
2022-08-17T23:48:36.684Z,99215.97
2022-08-17T23:51:11.042Z,99217.66
2022-08-17T23:53:44.819Z,99210.81
2022-08-17T23:56:13.244Z,99215.13
2022-08-17T23:58:43.090Z,99214.97
